createdAt,value
2022-11-14T00:00:56.699Z,88.24
2022-11-14T00:03:23.379Z,88.43
2022-11-14T00:05:50.113Z,88.31
2022-11-14T00:08:20.330Z,88.33
2022-11-14T00:10:48.664Z,88.05
2022-11-14T00:13:16.375Z,88.17
2022-11-14T00:15:46.059Z,87.77
2022-11-14T00:18:12.895Z,88.01
2022-11-14T00:20:39.703Z,87.87
2022-11-14T00:23:06.460Z,87.47
2022-11-14T00:25:33.255Z,87.37
2022-11-14T00:28:00.147Z,86.91
2022-11-14T00:30:28.779Z,86.82
2022-11-14T00:32:55.506Z,87.03
2022-11-14T00:35:22.459Z,86.80
2022-11-14T00:37:49.281Z,86.37
2022-11-14T00:40:16.386Z,86.52
2022-11-14T00:42:43.170Z,86.81
2022-11-14T00:45:10.483Z,86.58
2022-11-14T00:47:37.346Z,86.76
2022-11-14T00:50:05.038Z,86.21
2022-11-14T00:52:31.888Z,86.69
2022-11-14T00:54:58.571Z,86.72
2022-11-14T00:57:25.305Z,86.53
2022-11-14T00:59:53.695Z,86.34
2022-11-14T01:02:20.532Z,86.24
2022-11-14T01:04:47.219Z,86.39
2022-11-14T01:07:13.943Z,86.41
2022-11-14T01:09:40.809Z,86.20
2022-11-14T01:12:07.543Z,86.18
2022-11-14T01:14:34.232Z,85.86
2022-11-14T01:17:01.044Z,85.45
2022-11-14T01:19:29.030Z,85.59
2022-11-14T01:21:55.800Z,85.81
2022-11-14T01:24:22.620Z,85.67
2022-11-14T01:26:49.386Z,85.88
2022-11-14T01:29:16.159Z,85.86
2022-11-14T01:31:42.942Z,85.79
2022-11-14T01:34:10.041Z,85.65
2022-11-14T01:36:36.770Z,85.69
2022-11-14T01:39:04.112Z,85.16
2022-11-14T01:41:30.863Z,85.29
2022-11-14T01:43:57.616Z,85.32
2022-11-14T01:46:29.448Z,85.25
2022-11-14T01:49:01.343Z,85.33
2022-11-14T01:51:36.906Z,85.22
2022-11-14T01:54:08.715Z,85.25
2022-11-14T01:56:43.474Z,85.08
2022-11-14T01:59:14.449Z,85.73
2022-11-14T02:01:50.359Z,85.91
2022-11-14T02:04:27.881Z,85.75
2022-11-14T02:06:59.281Z,86.13
2022-11-14T02:09:28.119Z,86.23
2022-11-14T02:11:58.791Z,86.24
2022-11-14T02:14:27.355Z,86.51
2022-11-14T02:17:14.842Z,86.69
2022-11-14T02:19:46.236Z,86.85
2022-11-14T02:22:13.314Z,87.26
2022-11-14T02:24:40.112Z,87.29
2022-11-14T02:27:08.780Z,87.15
2022-11-14T02:29:36.064Z,87.44
2022-11-14T02:32:08.080Z,87.57
2022-11-14T02:34:37.354Z,87.46
2022-11-14T02:37:04.259Z,87.73
2022-11-14T02:39:31.079Z,87.75
2022-11-14T02:41:57.867Z,87.36
2022-11-14T02:44:24.654Z,87.63
2022-11-14T02:46:51.479Z,87.57
2022-11-14T02:49:18.372Z,87.35
2022-11-14T02:51:45.121Z,87.56
2022-11-14T02:54:11.867Z,87.79
2022-11-14T02:56:38.794Z,87.53
2022-11-14T02:59:05.493Z,87.54
2022-11-14T03:01:32.213Z,87.18
2022-11-14T03:03:59.108Z,86.80
2022-11-14T03:06:25.910Z,86.67
2022-11-14T03:08:52.620Z,86.72
2022-11-14T03:11:19.417Z,86.79
2022-11-14T03:13:46.106Z,86.71
2022-11-14T03:16:14.342Z,86.50
2022-11-14T03:18:41.435Z,86.37
2022-11-14T03:21:10.144Z,86.48
2022-11-14T03:23:37.410Z,86.24
2022-11-14T03:26:06.946Z,86.33
2022-11-14T03:28:33.854Z,86.18
2022-11-14T03:31:00.713Z,86.35
2022-11-14T03:33:27.711Z,86.01
2022-11-14T03:35:55.147Z,86.34
2022-11-14T03:38:24.645Z,86.06
2022-11-14T03:40:52.098Z,86.42
2022-11-14T03:43:20.644Z,86.22
2022-11-14T03:45:48.191Z,86.29
2022-11-14T03:48:15.229Z,86.20
2022-11-14T03:50:43.784Z,85.72
2022-11-14T03:53:11.482Z,85.70
2022-11-14T03:55:39.120Z,85.41
2022-11-14T03:58:05.974Z,85.33
2022-11-14T04:00:32.786Z,85.49
2022-11-14T04:02:59.590Z,85.27
2022-11-14T04:05:26.384Z,85.17
2022-11-14T04:07:53.140Z,85.11
2022-11-14T04:10:19.980Z,84.77
2022-11-14T04:12:53.851Z,84.88
2022-11-14T04:15:21.280Z,84.66
2022-11-14T04:17:49.584Z,84.62
2022-11-14T04:20:16.589Z,84.72
2022-11-14T04:22:43.481Z,84.65
2022-11-14T04:25:10.437Z,84.87
2022-11-14T04:27:37.210Z,84.59
2022-11-14T04:30:05.594Z,84.72
2022-11-14T04:32:32.326Z,84.52
2022-11-14T04:34:59.059Z,84.66
2022-11-14T04:37:25.836Z,84.67
2022-11-14T04:39:52.696Z,84.79
2022-11-14T04:42:19.482Z,84.44
2022-11-14T04:44:46.356Z,84.22
2022-11-14T04:47:13.082Z,84.45
2022-11-14T04:49:39.791Z,84.57
2022-11-14T04:52:06.667Z,84.76
2022-11-14T04:54:33.407Z,85.10
2022-11-14T04:57:00.177Z,85.09
2022-11-14T04:59:26.989Z,85.06
2022-11-14T05:01:53.800Z,84.98
2022-11-14T05:04:20.558Z,85.29
2022-11-14T05:06:47.419Z,85.18
2022-11-14T05:09:14.211Z,85.47
2022-11-14T05:11:41.063Z,85.17
2022-11-14T05:14:07.881Z,85.53
2022-11-14T05:16:34.570Z,85.88
2022-11-14T05:19:01.279Z,85.49
2022-11-14T05:21:28.110Z,85.52
2022-11-14T05:23:54.803Z,85.57
2022-11-14T05:26:21.518Z,85.46
2022-11-14T05:28:48.321Z,85.91
2022-11-14T05:31:18.850Z,85.98
2022-11-14T05:33:47.141Z,86.05
2022-11-14T05:36:16.222Z,86.03
2022-11-14T05:38:43.525Z,85.88
2022-11-14T05:41:12.872Z,85.47
2022-11-14T05:43:40.443Z,85.83
2022-11-14T05:46:10.193Z,85.54
2022-11-14T05:48:37.883Z,85.24
2022-11-14T05:51:06.501Z,85.28
2022-11-14T05:53:34.149Z,84.88
2022-11-14T05:56:04.740Z,84.52
2022-11-14T05:58:33.195Z,84.44
2022-11-14T06:01:11.945Z,83.94
2022-11-14T06:03:44.355Z,83.74
2022-11-14T06:06:13.968Z,83.63
2022-11-14T06:08:41.239Z,83.82
2022-11-14T06:11:14.463Z,83.48
2022-11-14T06:13:41.783Z,83.73
2022-11-14T06:16:12.008Z,83.88
2022-11-14T06:18:39.046Z,85.17
2022-11-14T06:21:11.464Z,84.16
2022-11-14T06:23:38.557Z,84.41
2022-11-14T06:26:07.825Z,84.00
2022-11-14T06:28:34.895Z,84.10
2022-11-14T06:31:04.442Z,83.89
2022-11-14T06:33:35.121Z,83.97
2022-11-14T06:36:05.861Z,83.68
2022-11-14T06:38:34.654Z,83.50
2022-11-14T06:41:17.711Z,83.56
2022-11-14T06:43:49.333Z,83.42
2022-11-14T06:46:19.056Z,83.77
2022-11-14T06:48:46.985Z,83.80
2022-11-14T06:51:15.121Z,84.13
2022-11-14T06:53:42.742Z,84.51
2022-11-14T06:56:11.920Z,84.86
2022-11-14T06:58:41.925Z,85.27
2022-11-14T07:01:13.314Z,85.61
2022-11-14T07:03:41.412Z,85.95
2022-11-14T07:06:09.829Z,86.25
2022-11-14T07:08:36.784Z,86.46
2022-11-14T07:11:09.001Z,86.72
2022-11-14T07:13:36.150Z,87.22
2022-11-14T07:16:03.845Z,87.43
2022-11-14T07:18:33.862Z,87.71
2022-11-14T07:21:02.579Z,88.91
2022-11-14T07:23:30.794Z,88.61
2022-11-14T07:26:07.030Z,88.66
2022-11-14T07:28:39.359Z,88.76
2022-11-14T07:31:12.587Z,89.06
2022-11-14T07:33:40.098Z,89.17
2022-11-14T07:36:07.805Z,89.37
2022-11-14T07:38:36.654Z,89.53
2022-11-14T07:41:06.957Z,89.72
2022-11-14T07:43:33.815Z,89.86
2022-11-14T07:46:13.474Z,89.70
2022-11-14T07:48:40.252Z,90.24
2022-11-14T07:51:10.351Z,89.86
2022-11-14T07:53:37.047Z,90.05
2022-11-14T07:56:11.370Z,89.87
2022-11-14T07:58:39.705Z,90.05
2022-11-14T08:01:09.868Z,89.88
2022-11-14T08:03:39.698Z,89.93
2022-11-14T08:06:12.740Z,89.79
2022-11-14T08:08:39.635Z,89.93
2022-11-14T08:11:07.142Z,89.72
2022-11-14T08:13:34.114Z,89.95
2022-11-14T08:16:12.917Z,89.76
2022-11-14T08:18:41.179Z,90.21
2022-11-14T08:21:08.429Z,90.01
2022-11-14T08:23:35.128Z,90.23
2022-11-14T08:26:02.051Z,90.06
2022-11-14T08:28:29.003Z,90.11
2022-11-14T08:31:01.351Z,90.09
2022-11-14T08:33:28.498Z,90.42
2022-11-14T08:35:55.677Z,90.03
2022-11-14T08:38:22.373Z,90.25
2022-11-14T08:40:49.167Z,90.66
2022-11-14T08:43:16.017Z,90.02
2022-11-14T08:45:42.765Z,89.32
2022-11-14T08:48:11.635Z,89.20
2022-11-14T08:50:38.315Z,89.50
2022-11-14T08:53:05.054Z,89.34
2022-11-14T08:55:31.865Z,89.22
2022-11-14T08:57:58.624Z,89.55
2022-11-14T09:00:25.397Z,89.58
2022-11-14T09:02:52.335Z,89.83
2022-11-14T09:05:19.083Z,89.40
2022-11-14T09:07:45.804Z,89.24
2022-11-14T09:10:12.559Z,88.82
2022-11-14T09:12:39.299Z,88.89
2022-11-14T09:15:06.756Z,88.92
2022-11-14T09:17:33.888Z,88.75
2022-11-14T09:20:00.701Z,89.30
2022-11-14T09:22:27.410Z,89.53
2022-11-14T09:24:54.329Z,89.11
2022-11-14T09:27:21.652Z,89.38
2022-11-14T09:29:48.358Z,88.79
2022-11-14T09:32:15.173Z,89.36
2022-11-14T09:34:44.954Z,90.30
2022-11-14T09:37:11.717Z,89.17
2022-11-14T09:39:40.897Z,87.45
2022-11-14T09:42:32.823Z,87.91
2022-11-14T09:45:06.529Z,84.46
2022-11-14T09:47:54.781Z,82.78
2022-11-14T09:50:46.650Z,83.70
2022-11-14T09:53:34.623Z,80.23
2022-11-14T09:56:01.848Z,74.84
2022-11-14T09:58:29.193Z,75.40
2022-11-14T10:01:09.727Z,74.23
2022-11-14T10:04:05.834Z,73.19
2022-11-14T10:07:04.548Z,69.88
2022-11-14T10:09:52.521Z,71.02
2022-11-14T10:12:34.637Z,70.92
2022-11-14T10:15:10.254Z,68.00
2022-11-14T10:17:45.345Z,65.80
2022-11-14T10:20:27.289Z,66.18
2022-11-14T10:23:22.105Z,65.04
2022-11-14T10:25:54.850Z,61.66
2022-11-14T10:28:40.061Z,61.70
2022-11-14T10:31:37.316Z,62.85
2022-11-14T10:34:29.248Z,62.33
2022-11-14T10:37:17.456Z,62.81
2022-11-14T10:39:44.111Z,61.43
2022-11-14T10:42:35.284Z,62.61
2022-11-14T10:45:10.940Z,64.54
2022-11-14T10:47:43.973Z,65.83
2022-11-14T10:50:22.136Z,67.21
2022-11-14T10:52:54.964Z,68.38
2022-11-14T10:55:32.048Z,69.07
2022-11-14T10:58:11.268Z,69.69
2022-11-14T11:00:38.041Z,69.68
2022-11-14T11:03:04.800Z,69.98
2022-11-14T11:05:31.596Z,70.10
2022-11-14T11:11:30.970Z,70.53
2022-11-14T11:14:01.119Z,70.92
2022-11-14T11:16:29.765Z,71.13
2022-11-14T11:19:35.215Z,70.97
2022-11-14T11:22:02.216Z,71.18
2022-11-14T11:24:34.178Z,71.11
2022-11-14T11:27:19.298Z,70.62
2022-11-14T11:29:46.999Z,70.68
2022-11-14T11:32:26.298Z,71.21
2022-11-14T11:34:54.290Z,70.81
2022-11-14T11:37:23.518Z,70.93
2022-11-14T11:39:55.409Z,70.33
2022-11-14T11:43:23.606Z,69.85
2022-11-14T11:45:22.108Z,69.91
2022-11-14T11:48:01.813Z,69.63
2022-11-14T11:50:30.269Z,69.43
2022-11-14T11:53:29.739Z,69.78
2022-11-14T11:56:04.693Z,69.66
2022-11-14T11:58:51.609Z,69.37
2022-11-14T12:01:19.925Z,69.44
2022-11-14T12:03:53.106Z,67.41
2022-11-14T12:06:27.613Z,66.87
2022-11-14T12:09:06.814Z,66.08
2022-11-14T12:11:38.034Z,66.89
2022-11-14T12:14:29.330Z,66.13
2022-11-14T12:17:08.232Z,66.54
2022-11-14T12:19:52.739Z,66.03
2022-11-14T12:22:38.435Z,66.68
2022-11-14T12:25:23.431Z,66.19
2022-11-14T12:28:27.201Z,65.81
2022-11-14T12:30:59.144Z,65.75
2022-11-14T12:33:30.173Z,64.89
2022-11-14T12:36:01.073Z,64.08
2022-11-14T12:38:40.756Z,62.10
2022-11-14T12:41:08.574Z,61.60
2022-11-14T12:43:39.149Z,60.96
2022-11-14T12:46:09.437Z,61.55
2022-11-14T12:48:41.798Z,61.53
2022-11-14T12:51:46.835Z,62.45
2022-11-14T12:54:43.718Z,62.50
2022-11-14T12:57:39.018Z,63.03
2022-11-14T13:00:09.115Z,62.36
2022-11-14T13:03:00.645Z,62.13
2022-11-14T13:05:46.826Z,61.25
2022-11-14T13:08:28.853Z,61.63
2022-11-14T13:10:55.576Z,62.14
2022-11-14T13:13:42.151Z,62.67
2022-11-14T13:16:43.077Z,63.34
2022-11-14T13:19:39.377Z,63.54
2022-11-14T13:22:12.257Z,64.19
2022-11-14T13:25:04.295Z,64.48
2022-11-14T13:28:05.215Z,64.67
2022-11-14T13:30:40.177Z,65.15
2022-11-14T13:33:07.728Z,65.46
2022-11-14T13:36:05.422Z,65.33
2022-11-14T13:38:48.965Z,65.38
2022-11-14T13:41:54.203Z,65.65
2022-11-14T13:44:53.588Z,65.59
2022-11-14T13:47:47.018Z,65.11
2022-11-14T13:50:25.141Z,64.89
2022-11-14T13:52:52.421Z,64.88
2022-11-14T13:55:31.275Z,64.86
2022-11-14T13:58:29.853Z,65.37
2022-11-14T14:01:41.033Z,65.79
2022-11-14T14:04:29.120Z,65.96
2022-11-14T14:07:01.666Z,65.80
2022-11-14T14:10:01.729Z,65.87
2022-11-14T14:12:51.226Z,66.80
2022-11-14T14:15:29.854Z,66.18
2022-11-14T14:18:16.720Z,65.97
2022-11-14T14:21:11.816Z,65.73
2022-11-14T14:24:26.175Z,66.21
2022-11-14T14:26:55.880Z,66.62
2022-11-14T14:29:38.537Z,66.54
2022-11-14T14:32:20.117Z,66.97
2022-11-14T14:34:46.840Z,67.25
2022-11-14T14:37:19.141Z,67.60
2022-11-14T14:40:02.624Z,67.25
2022-11-14T14:42:40.978Z,67.65
2022-11-14T14:45:20.519Z,67.44
2022-11-14T14:47:50.124Z,67.42
2022-11-14T14:50:21.793Z,67.70
2022-11-14T14:53:02.420Z,67.17
2022-11-14T14:55:32.909Z,66.73
2022-11-14T14:58:26.707Z,66.75
2022-11-14T15:01:09.903Z,67.13
2022-11-14T15:03:39.966Z,67.12
2022-11-14T15:06:18.061Z,67.97
2022-11-14T15:08:46.185Z,67.80
2022-11-14T15:11:15.028Z,67.71
2022-11-14T15:13:43.343Z,67.86
2022-11-14T15:16:11.272Z,68.14
2022-11-14T15:18:38.652Z,68.97
2022-11-14T15:21:09.690Z,69.03
2022-11-14T15:23:39.763Z,68.66
2022-11-14T15:26:12.859Z,69.17
2022-11-14T15:28:39.623Z,68.73
2022-11-14T15:31:06.907Z,68.57
2022-11-14T15:33:35.534Z,68.66
2022-11-14T15:36:14.983Z,68.53
2022-11-14T15:39:02.690Z,68.86
2022-11-14T15:41:33.070Z,69.14
2022-11-14T15:44:03.433Z,69.41
2022-11-14T15:46:46.225Z,69.56
2022-11-14T15:49:25.667Z,69.46
2022-11-14T15:51:56.559Z,69.52
2022-11-14T15:54:34.974Z,69.67
2022-11-14T15:57:11.932Z,69.60
2022-11-14T15:59:39.061Z,69.54
2022-11-14T16:02:22.302Z,70.09
2022-11-14T16:04:51.997Z,70.03
2022-11-14T16:07:19.941Z,70.09
2022-11-14T16:09:46.861Z,69.88
2022-11-14T16:12:13.990Z,70.11
2022-11-14T16:14:41.009Z,70.45
2022-11-14T16:17:13.650Z,70.53
2022-11-14T16:19:40.629Z,70.54
2022-11-14T16:22:13.284Z,71.49
2022-11-14T16:24:40.219Z,71.30
2022-11-14T16:27:07.046Z,71.40
2022-11-14T16:29:33.837Z,71.94
2022-11-14T16:32:00.739Z,72.39
2022-11-14T16:34:27.691Z,72.52
2022-11-14T16:37:00.055Z,72.43
2022-11-14T16:39:27.644Z,72.46
2022-11-14T16:42:00.645Z,71.92
2022-11-14T16:44:27.633Z,72.33
2022-11-14T16:46:55.484Z,72.30
2022-11-14T16:49:22.231Z,73.04
2022-11-14T16:51:50.768Z,72.94
2022-11-14T16:54:19.719Z,73.50
2022-11-14T16:56:47.414Z,73.87
2022-11-14T16:59:14.676Z,74.01
2022-11-14T17:01:42.126Z,74.23
2022-11-14T17:04:08.911Z,74.12
2022-11-14T17:06:35.751Z,74.00
2022-11-14T17:09:02.619Z,73.55
2022-11-14T17:11:29.522Z,74.02
2022-11-14T17:13:57.147Z,74.12
2022-11-14T17:16:24.568Z,73.76
2022-11-14T17:18:54.249Z,74.13
2022-11-14T17:21:22.036Z,74.81
2022-11-14T17:23:57.043Z,76.30
2022-11-14T17:26:24.177Z,77.40
2022-11-14T17:28:50.964Z,77.97
2022-11-14T17:31:17.917Z,78.92
2022-11-14T17:33:54.093Z,79.31
2022-11-14T17:36:23.867Z,79.53
2022-11-14T17:38:50.681Z,79.88
2022-11-14T17:41:18.401Z,79.48
2022-11-14T17:43:45.349Z,79.76
2022-11-14T17:46:15.941Z,79.57
2022-11-14T17:48:44.132Z,79.34
2022-11-14T17:51:13.218Z,79.18
2022-11-14T17:53:40.306Z,79.22
2022-11-14T17:56:08.687Z,78.99
2022-11-14T17:58:35.572Z,79.02
2022-11-14T18:01:02.376Z,78.39
2022-11-14T18:03:29.942Z,77.93
2022-11-14T18:06:10.635Z,77.96
2022-11-14T18:08:38.137Z,78.04
2022-11-14T18:11:07.289Z,77.76
2022-11-14T18:13:34.789Z,77.92
2022-11-14T18:16:03.374Z,77.45
2022-11-14T18:18:34.904Z,77.72
2022-11-14T18:21:14.332Z,77.69
2022-11-14T18:23:41.290Z,77.51
2022-11-14T18:26:20.135Z,77.75
2022-11-14T18:28:46.832Z,77.61
2022-11-14T18:31:14.006Z,77.29
2022-11-14T18:33:41.801Z,77.50
2022-11-14T18:36:11.747Z,77.11
2022-11-14T18:38:38.580Z,77.64
2022-11-14T18:41:09.833Z,77.65
2022-11-14T18:43:36.795Z,77.34
2022-11-14T18:46:12.236Z,77.29
2022-11-14T18:48:40.357Z,77.59
2022-11-14T18:51:11.759Z,77.54
2022-11-14T18:53:38.609Z,77.83
2022-11-14T18:56:07.174Z,77.76
2022-11-14T18:58:34.100Z,78.07
2022-11-14T19:01:40.658Z,77.71
2022-11-14T19:04:10.070Z,77.97
2022-11-14T19:06:39.101Z,77.97
2022-11-14T19:09:11.320Z,78.33
2022-11-14T19:11:57.190Z,78.01
2022-11-14T19:14:24.008Z,78.71
2022-11-14T19:16:50.724Z,79.05
2022-11-14T19:19:17.495Z,79.48
2022-11-14T19:21:44.406Z,79.51
2022-11-14T19:24:11.201Z,79.73
2022-11-14T19:26:37.986Z,80.20
2022-11-14T19:29:07.833Z,80.31
2022-11-14T19:31:34.554Z,80.91
2022-11-14T19:34:01.419Z,81.04
2022-11-14T19:36:57.706Z,80.95
2022-11-14T19:39:15.456Z,81.07
2022-11-14T19:41:42.238Z,81.41
2022-11-14T19:44:09.013Z,81.82
2022-11-14T19:46:36.922Z,81.67
2022-11-14T19:49:04.476Z,81.90
2022-11-14T19:51:32.953Z,81.83
2022-11-14T19:54:03.100Z,81.98
2022-11-14T19:56:29.785Z,82.86
2022-11-14T19:58:57.359Z,82.48
2022-11-14T20:01:28.557Z,82.36
2022-11-14T20:04:00.912Z,82.10
2022-11-14T20:06:34.286Z,82.11
2022-11-14T20:09:05.574Z,82.47
2022-11-14T20:11:32.995Z,82.17
2022-11-14T20:14:01.279Z,82.45
2022-11-14T20:16:30.934Z,82.33
2022-11-14T20:19:00.671Z,82.58
2022-11-14T20:21:30.283Z,82.26
2022-11-14T20:23:57.212Z,81.80
2022-11-14T20:26:24.186Z,82.01
2022-11-14T20:28:52.967Z,81.89
2022-11-14T20:31:24.866Z,81.95
2022-11-14T20:33:53.468Z,81.53
2022-11-14T20:36:24.063Z,81.42
2022-11-14T20:38:52.237Z,81.82
2022-11-14T20:41:20.070Z,81.63
2022-11-14T20:43:47.246Z,81.45
2022-11-14T20:46:16.772Z,81.17
2022-11-14T20:48:44.318Z,81.45
2022-11-14T20:51:14.406Z,81.09
2022-11-14T20:53:41.430Z,81.51
2022-11-14T20:56:09.202Z,81.69
2022-11-14T20:58:36.445Z,80.97
2022-11-14T21:01:04.117Z,81.36
2022-11-14T21:03:31.450Z,80.85
2022-11-14T21:06:01.400Z,81.28
2022-11-14T21:08:29.298Z,81.13
2022-11-14T21:11:02.335Z,81.21
2022-11-14T21:13:48.109Z,81.55
2022-11-14T21:16:19.349Z,81.76
2022-11-14T21:18:48.105Z,81.91
2022-11-14T21:21:16.791Z,81.72
2022-11-14T21:23:46.579Z,81.60
2022-11-14T21:26:23.949Z,81.34
2022-11-14T21:28:54.083Z,81.25
2022-11-14T21:31:22.659Z,81.79
2022-11-14T21:33:51.259Z,81.16
2022-11-14T21:39:06.815Z,81.29
2022-11-14T21:41:33.685Z,81.46
2022-11-14T21:44:02.958Z,81.53
2022-11-14T21:46:29.989Z,82.03
2022-11-14T21:48:57.561Z,82.02
2022-11-14T21:51:29.162Z,82.01
2022-11-14T21:54:02.971Z,82.57
2022-11-14T21:56:31.957Z,82.30
2022-11-14T21:59:15.766Z,82.40
2022-11-14T22:02:07.177Z,82.63
2022-11-14T22:04:34.855Z,82.73
2022-11-14T22:07:03.103Z,82.78
2022-11-14T22:09:30.510Z,83.46
2022-11-14T22:11:57.405Z,83.69
2022-11-14T22:14:24.471Z,84.21
2022-11-14T22:16:51.310Z,84.99
2022-11-14T22:19:19.111Z,85.50
2022-11-14T22:21:46.041Z,85.99
2022-11-14T22:24:12.796Z,86.17
2022-11-14T22:26:40.674Z,85.84
2022-11-14T22:29:08.469Z,86.25
2022-11-14T22:31:35.350Z,85.93
2022-11-14T22:34:02.364Z,86.36
2022-11-14T22:36:29.484Z,86.42
2022-11-14T22:38:57.118Z,86.21
2022-11-14T22:41:32.748Z,85.72
2022-11-14T22:44:00.913Z,86.32
2022-11-14T22:46:27.854Z,86.09
2022-11-14T22:48:55.154Z,86.01
2022-11-14T22:51:24.162Z,85.97
2022-11-14T22:54:01.139Z,85.77
2022-11-14T22:56:29.494Z,85.35
2022-11-14T22:58:58.882Z,85.47
2022-11-14T23:01:27.968Z,85.29
2022-11-14T23:03:57.267Z,85.44
2022-11-14T23:06:25.022Z,85.21
2022-11-14T23:08:52.575Z,85.63
2022-11-14T23:11:22.921Z,84.94
2022-11-14T23:13:52.394Z,84.82
2022-11-14T23:16:24.906Z,84.72
2022-11-14T23:18:54.916Z,84.92
2022-11-14T23:21:25.024Z,84.58
2022-11-14T23:23:55.372Z,84.92
2022-11-14T23:26:23.175Z,84.56
2022-11-14T23:28:49.966Z,84.17
2022-11-14T23:31:19.568Z,83.76
2022-11-14T23:33:47.569Z,83.81
2022-11-14T23:36:14.578Z,84.20
2022-11-14T23:38:42.327Z,84.09
2022-11-14T23:41:18.562Z,84.02
2022-11-14T23:43:46.116Z,84.19
2022-11-14T23:46:13.675Z,84.09
2022-11-14T23:48:40.652Z,84.28
2022-11-14T23:51:07.716Z,84.12
2022-11-14T23:53:34.628Z,84.45
2022-11-14T23:56:02.413Z,84.27
2022-11-14T23:58:30.539Z,84.01
